Time;durP1;ratioP1;P1;durP2;ratioP2;P2;SDS_P1;SDS_P2;PMS_P1;PMS_P2;Temp;Humidity;BMP_temperature;BMP_pressure;BME280_temperature;BME280_humidity;BME280_pressure;Samples;Min_cycle;Max_cycle;Signal;HPM_P1;HPM_P2
2022/03/14 00:01:59;;;;;;;55.85;29.58;;;;;;;2.78;41.54;100544.44;4966804;28;20123;-89
2022/03/14 00:04:25;;;;;;;52.78;28.27;;;;;;;2.87;41.75;100544.44;4967684;28;20032;-92
2022/03/14 00:06:51;;;;;;;49.97;27.42;;;;;;;2.84;41.72;100543.59;4967622;28;20543;-91
2022/03/14 00:09:17;;;;;;;50.42;28.42;;;;;;;2.82;42.56;100548.72;4967511;28;20038;-90
2022/03/14 00:11:44;;;;;;;52.42;28.15;;;;;;;2.79;42.26;100541.03;4967008;28;20099;-91
2022/03/14 00:14:10;;;;;;;53.08;29.90;;;;;;;2.77;42.69;100553.00;4967426;28;20065;-91
2022/03/14 00:16:38;;;;;;;51.85;29.98;;;;;;;2.49;43.10;100506.75;4967402;28;20488;-92
2022/03/14 00:19:06;;;;;;;57.13;31.05;;;;;;;2.73;42.95;100552.16;4967216;28;20028;-91
2022/03/14 00:21:35;;;;;;;48.90;27.58;;;;;;;2.70;42.93;100549.59;4951174;28;20123;-91
2022/03/14 00:24:02;;;;;;;54.35;27.67;;;;;;;2.69;43.40;100547.00;4935209;29;20032;-90
2022/03/14 00:26:27;;;;;;;46.80;26.27;;;;;;;2.65;43.56;100550.44;4966509;28;20035;-90
2022/03/14 00:28:53;;;;;;;54.35;28.23;;;;;;;2.59;43.91;100543.59;4966170;28;20034;-90
2022/03/14 00:31:20;;;;;;;51.55;29.80;;;;;;;2.52;43.72;100538.44;4966669;28;20055;-89
2022/03/14 00:33:45;;;;;;;49.78;28.33;;;;;;;2.53;44.31;100540.16;4966704;28;20035;-90
2022/03/14 00:36:11;;;;;;;56.65;31.38;;;;;;;2.52;44.49;100553.88;4967285;28;20036;-91
2022/03/14 00:38:37;;;;;;;51.97;30.02;;;;;;;2.38;44.62;100530.72;4967146;28;20031;-91
2022/03/14 00:41:04;;;;;;;56.13;29.23;;;;;;;2.42;44.92;100546.16;4970313;28;20065;-91
2022/03/14 00:43:30;;;;;;;51.80;28.77;;;;;;;2.41;44.84;100553.88;4970914;28;20106;-90
2022/03/14 00:45:56;;;;;;;45.63;26.88;;;;;;;2.38;44.59;100564.16;4971038;28;20480;-91
2022/03/14 00:48:22;;;;;;;54.30;29.27;;;;;;;2.36;45.32;100559.03;4939076;28;20147;-90
2022/03/14 00:50:49;;;;;;;56.83;29.52;;;;;;;2.33;45.49;100553.00;4938795;29;20480;-91
2022/03/14 00:53:15;;;;;;;63.03;32.25;;;;;;;2.31;45.58;100557.28;4970687;28;20498;-90
2022/03/14 00:55:40;;;;;;;54.88;30.65;;;;;;;2.26;45.57;100562.41;4970697;28;20047;-90
2022/03/14 00:58:07;;;;;;;56.63;32.15;;;;;;;2.26;46.01;100559.84;4970915;28;20071;-90
2022/03/14 01:00:32;;;;;;;58.10;30.38;;;;;;;2.23;46.17;100562.41;4970586;28;20035;-91
2022/03/14 01:02:59;;;;;;;56.60;29.70;;;;;;;2.22;45.97;100563.25;4970750;28;20034;-90
2022/03/14 01:05:24;;;;;;;61.63;31.15;;;;;;;2.14;46.23;100552.97;4938711;28;20027;-90
2022/03/14 01:07:50;;;;;;;58.40;31.23;;;;;;;2.15;46.64;100558.94;4938516;28;20043;-90
2022/03/14 01:10:15;;;;;;;52.08;28.73;;;;;;;2.13;46.68;100565.81;4970705;28;20082;-93
2022/03/14 01:12:41;;;;;;;57.88;32.05;;;;;;;2.11;46.66;100568.41;4970227;28;20078;-89
2022/03/14 01:15:07;;;;;;;50.78;29.15;;;;;;;1.94;47.00;100531.53;4969160;28;20114;-86
2022/03/14 01:17:32;;;;;;;49.63;28.90;;;;;;;2.04;47.40;100555.53;4968604;28;20032;-88
2022/03/14 01:19:57;;;;;;;57.22;31.92;;;;;;;2.02;47.47;100554.63;4973945;28;20444;-87
2022/03/14 01:22:23;;;;;;;59.00;29.73;;;;;;;1.98;47.12;100557.22;4957837;28;20046;-88
2022/03/14 01:24:48;;;;;;;59.13;32.10;;;;;;;1.96;47.58;100548.63;4974061;28;20124;-88
2022/03/14 01:27:14;;;;;;;60.70;32.95;;;;;;;1.94;47.81;100552.06;4957958;28;20387;-88
2022/03/14 01:29:39;;;;;;;56.90;30.05;;;;;;;1.87;47.80;100548.63;4973857;28;20486;-88
2022/03/14 01:32:06;;;;;;;53.58;30.75;;;;;;;1.71;47.93;100518.59;4957718;28;20035;-87
2022/03/14 01:34:33;;;;;;;64.20;36.00;;;;;;;1.86;48.40;100544.34;4957359;28;20030;-86
2022/03/14 01:36:58;;;;;;;55.42;31.23;;;;;;;1.82;47.98;100549.47;4973432;28;20521;-85
2022/03/14 01:39:24;;;;;;;55.53;30.88;;;;;;;1.79;48.36;100549.44;4957227;28;20043;-84
2022/03/14 01:41:51;;;;;;;57.45;32.85;;;;;;;1.71;48.11;100536.56;4973133;28;20031;-84
2022/03/14 01:44:17;;;;;;;68.80;35.72;;;;;;;1.64;48.60;100530.53;4973310;28;20027;-85
2022/03/14 01:46:43;;;;;;;67.07;34.17;;;;;;;1.71;48.47;100542.56;4973159;28;20205;-86
2022/03/14 01:49:09;;;;;;;61.47;32.38;;;;;;;1.77;48.88;100563.97;4957895;28;20621;-90
2022/03/14 01:51:35;;;;;;;60.08;31.15;;;;;;;1.74;49.01;100564.84;4941401;28;20039;-91
2022/03/14 01:54:01;;;;;;;55.47;30.88;;;;;;;1.71;48.98;100559.69;4969144;28;20032;-88
2022/03/14 01:56:27;;;;;;;60.95;32.55;;;;;;;1.63;49.42;100553.66;4968215;28;20032;-88
2022/03/14 01:58:53;;;;;;;66.85;35.25;;;;;;;1.65;49.74;100552.81;4936097;28;20032;-88
2022/03/14 02:01:22;;;;;;;63.60;33.65;;;;;;;1.68;49.36;100557.94;4936205;29;20038;-88
2022/03/14 02:03:50;;;;;;;57.88;31.25;;;;;;;1.61;49.45;100552.81;4935754;28;20488;-86
2022/03/14 02:06:15;;;;;;;59.80;31.83;;;;;;;1.62;49.56;100563.06;4967968;28;20388;-87
2022/03/14 02:08:41;;;;;;;56.85;31.42;;;;;;;1.60;49.65;100563.91;4968550;28;20036;-90
2022/03/14 02:11:06;;;;;;;61.63;34.80;;;;;;;1.60;49.73;100575.06;4968229;28;20035;-86
2022/03/14 02:13:32;;;;;;;62.00;34.03;;;;;;;1.56;49.94;100557.03;4967430;28;20138;-85
2022/03/14 02:15:57;;;;;;;63.17;35.88;;;;;;;1.43;50.43;100546.75;4967361;28;20047;-86
2022/03/14 02:18:23;;;;;;;63.50;34.00;;;;;;;1.50;50.19;100568.16;4936764;29;20028;-86
2022/03/14 02:20:48;;;;;;;62.22;35.15;;;;;;;1.43;50.35;100553.56;4967380;28;20096;-88
2022/03/14 02:23:13;;;;;;;61.95;33.70;;;;;;;1.52;50.53;100578.41;4953438;28;20102;-87
2022/03/14 02:25:50;;;;;;;61.38;34.88;;;;;;;1.41;50.39;100561.25;4937205;29;20042;-87
2022/03/14 02:28:22;;;;;;;70.53;38.05;;;;;;;1.33;51.00;100551.81;4937571;29;20639;-85
2022/03/14 02:30:49;;;;;;;63.85;35.35;;;;;;;1.38;51.23;100562.94;4936882;29;20032;-85
2022/03/14 02:33:14;;;;;;;63.45;34.90;;;;;;;1.40;51.19;100580.09;4936984;29;20039;-82
2022/03/14 02:35:42;;;;;;;83.20;43.05;;;;;;;1.29;51.75;100557.78;4952824;28;20027;-82
2022/03/14 02:38:16;;;;;;;86.68;42.50;;;;;;;1.28;51.42;100563.75;4937118;29;20074;-81
2022/03/14 02:40:46;;;;;;;78.20;39.05;;;;;;;1.20;51.56;100567.13;4953079;29;20067;-81
2022/03/14 02:43:24;;;;;;;79.68;39.90;;;;;;;1.13;52.28;100551.69;4953199;28;20043;-82
2022/03/14 02:45:51;;;;;;;88.55;42.97;;;;;;;1.23;52.27;100581.69;4952740;29;20090;-82
2022/03/14 02:48:17;;;;;;;83.32;41.65;;;;;;;1.09;52.47;100555.06;4936832;29;20070;-82
2022/03/14 02:50:43;;;;;;;88.93;44.17;;;;;;;1.13;52.84;100567.94;4952732;29;20040;-84
2022/03/14 02:53:13;;;;;;;76.20;40.03;;;;;;;1.12;52.98;100579.06;4967848;28;20031;-86
2022/03/14 02:55:39;;;;;;;71.00;37.60;;;;;;;1.08;53.18;100569.63;4934433;28;20032;-86
2022/03/14 02:58:05;;;;;;;76.68;40.33;;;;;;;1.03;54.19;100561.03;4966654;28;20036;-86
2022/03/14 03:00:31;;;;;;;71.40;38.38;;;;;;;1.03;53.63;100573.88;4966777;28;20035;-86
2022/03/14 03:02:57;;;;;;;61.15;35.10;;;;;;;1.01;54.27;100570.41;4966387;28;20031;-86
2022/03/14 03:05:22;;;;;;;66.85;35.90;;;;;;;0.98;55.00;100571.28;4966837;28;20094;-87
2022/03/14 03:07:48;;;;;;;68.20;34.28;;;;;;;1.04;54.64;100577.28;4966526;28;20032;-86
2022/03/14 03:10:23;;;;;;;59.78;33.13;;;;;;;0.98;54.75;100578.97;4966724;28;20031;-87
2022/03/14 03:12:49;;;;;;;67.63;34.90;;;;;;;0.94;54.62;100568.66;4966109;28;20055;-86
2022/03/14 03:15:15;;;;;;;57.15;33.00;;;;;;;0.96;54.97;100585.78;4934485;28;20071;-86
2022/03/14 03:17:41;;;;;;;61.72;32.42;;;;;;;0.96;54.66;100584.91;4966388;28;20079;-85
2022/03/14 03:20:07;;;;;;;66.90;33.97;;;;;;;0.94;54.66;100578.94;4971466;28;20046;-84
2022/03/14 03:22:33;;;;;;;73.45;41.83;;;;;;;0.79;54.65;100558.28;4971414;28;20062;-84
2022/03/14 03:24:58;;;;;;;77.43;41.63;;;;;;;0.94;54.96;100591.75;4971229;28;20498;-85
2022/03/14 03:27:24;;;;;;;70.50;38.50;;;;;;;0.88;54.83;100594.25;4971486;28;20039;-85
2022/03/14 03:29:49;;;;;;;67.35;35.65;;;;;;;0.83;55.13;100583.09;4971152;28;20027;-86
2022/03/14 03:32:15;;;;;;;63.97;35.08;;;;;;;0.86;54.83;100594.25;4955666;28;20043;-89
2022/03/14 03:34:40;;;;;;;64.50;33.55;;;;;;;0.87;55.16;100600.25;4972408;28;20027;-92
2022/03/14 03:37:06;;;;;;;60.63;33.60;;;;;;;0.84;55.21;100595.94;4957603;28;20493;-94
2022/03/14 03:39:32;;;;;;;58.47;32.30;;;;;;;0.76;55.16;100595.03;4971336;28;20050;-83
2022/03/14 03:41:57;;;;;;;63.95;34.72;;;;;;;0.78;55.17;100601.03;4954777;28;20038;-84
2022/03/14 03:44:23;;;;;;;62.25;33.60;;;;;;;0.75;54.81;100591.59;4971081;28;20205;-84
2022/03/14 03:46:48;;;;;;;57.17;31.58;;;;;;;0.70;55.21;100588.13;4954824;28;20267;-84
2022/03/14 03:49:14;;;;;;;59.95;32.13;;;;;;;0.80;54.82;100607.03;4955047;28;20039;-84
2022/03/14 03:51:40;;;;;;;61.70;31.55;;;;;;;0.74;54.92;100600.13;4971090;28;20137;-84
2022/03/14 03:54:05;;;;;;;58.92;32.15;;;;;;;0.73;54.60;100606.13;4970735;28;20078;-84
2022/03/14 03:56:32;;;;;;;57.47;31.77;;;;;;;0.72;54.63;100604.41;4950546;28;20030;-84
2022/03/14 03:58:58;;;;;;;61.85;32.47;;;;;;;0.65;54.46;100594.94;4913347;29;20564;-84
2022/03/14 04:01:23;;;;;;;60.40;32.13;;;;;;;0.69;54.63;100606.94;4929394;29;20063;-84
2022/03/14 04:03:54;;;;;;;63.03;32.97;;;;;;;0.53;54.60;100583.72;4913491;29;20123;-84
2022/03/14 04:06:25;;;;;;;64.10;31.52;;;;;;;0.52;54.08;100585.41;4913495;28;20135;-84
2022/03/14 04:08:50;;;;;;;;;;;;;;;0.69;54.12;100614.63;4913680;28;20036;-85
2022/03/14 04:11:16;;;;;;;64.72;33.88;;;;;;;0.57;54.14;100595.72;4929581;28;20355;-84
2022/03/14 04:13:42;;;;;;;69.05;36.90;;;;;;;0.57;54.22;100600.84;4934186;29;20048;-83
2022/03/14 04:16:07;;;;;;;74.88;38.03;;;;;;;0.63;53.96;100617.16;4965045;28;20031;-80
2022/03/14 04:18:33;;;;;;;61.35;33.38;;;;;;;0.56;54.36;100605.13;4934739;29;20477;-82
2022/03/14 04:20:59;;;;;;;68.78;33.72;;;;;;;0.59;53.97;100614.50;4934574;29;20020;-82
2022/03/14 04:23:24;;;;;;;66.32;35.13;;;;;;;0.53;54.25;100606.78;4934701;29;20039;-82
2022/03/14 04:25:49;;;;;;;58.85;32.90;;;;;;;0.53;54.22;100601.66;4934396;29;20024;-82
2022/03/14 04:28:16;;;;;;;63.15;34.15;;;;;;;0.65;53.15;100629.97;4965594;28;20036;-83
2022/03/14 04:30:42;;;;;;;58.22;31.55;;;;;;;0.65;53.41;100628.25;4965590;28;20075;-82
2022/03/14 04:33:08;;;;;;;58.28;32.75;;;;;;;0.48;52.89;100594.78;4934385;29;20058;-82
2022/03/14 04:35:35;;;;;;;55.47;30.95;;;;;;;0.66;52.94;100621.44;4965251;28;20039;-84
2022/03/14 04:38:02;;;;;;;53.03;30.45;;;;;;;0.58;52.94;100617.94;4965125;28;20031;-84
2022/03/14 04:40:27;;;;;;;53.10;28.45;;;;;;;0.60;52.56;100617.13;4934534;29;20102;-84
2022/03/14 04:42:53;;;;;;;51.28;29.23;;;;;;;0.58;51.74;100620.50;4964956;28;20118;-83
2022/03/14 04:45:18;;;;;;;53.85;29.63;;;;;;;0.66;51.90;100635.09;4934280;29;20028;-83
2022/03/14 04:47:44;;;;;;;53.97;30.98;;;;;;;0.63;51.54;100632.53;4934128;29;20070;-84
2022/03/14 04:50:09;;;;;;;56.92;31.15;;;;;;;0.63;51.90;100639.34;4932679;28;20063;-84
2022/03/14 04:52:35;;;;;;;55.25;29.50;;;;;;;0.61;52.26;100628.22;4933992;29;20395;-84
2022/03/14 04:55:02;;;;;;;53.13;28.65;;;;;;;0.66;51.57;100639.38;4956310;28;20187;-83
2022/03/14 04:57:28;;;;;;;53.22;29.25;;;;;;;0.60;50.90;100629.06;4933014;29;20428;-85
2022/03/14 04:59:53;;;;;;;51.38;27.25;;;;;;;0.56;50.47;100630.75;4934087;29;20035;-83
2022/03/14 05:02:23;;;;;;;51.75;28.58;;;;;;;0.65;50.40;100641.09;4933301;28;20035;-82
2022/03/14 05:04:49;;;;;;;48.88;27.35;;;;;;;0.68;50.14;100646.25;4934366;29;20032;-82
2022/03/14 05:07:14;;;;;;;51.17;26.20;;;;;;;0.61;50.29;100625.66;4958054;28;20528;-84
2022/03/14 05:09:40;;;;;;;53.00;27.92;;;;;;;0.62;49.50;100617.97;4934134;29;20106;-84
2022/03/14 05:12:06;;;;;;;47.60;25.90;;;;;;;0.74;49.39;100642.88;4932296;29;20048;-84
2022/03/14 05:14:31;;;;;;;49.15;26.67;;;;;;;0.74;49.33;100650.56;4932360;29;20060;-83
2022/03/14 05:16:57;;;;;;;50.92;27.08;;;;;;;0.75;49.02;100637.75;4956416;28;20106;-82
2022/03/14 05:19:22;;;;;;;47.58;28.20;;;;;;;0.83;49.06;100649.78;4932590;29;20035;-84
2022/03/14 05:21:48;;;;;;;67.65;33.92;;;;;;;0.73;48.68;100641.16;4932367;29;20024;-83
2022/03/14 05:24:14;;;;;;;174.25;61.38;;;;;;;0.88;48.30;100658.38;4934444;29;20046;-83
2022/03/14 05:26:39;;;;;;;58.80;29.00;;;;;;;0.87;48.33;100656.66;4967226;28;20047;-83
2022/03/14 05:29:05;;;;;;;58.35;26.10;;;;;;;0.87;48.58;100652.38;4973319;28;20061;-83
2022/03/14 05:31:30;;;;;;;58.72;28.50;;;;;;;0.98;48.16;100644.81;4957404;28;20677;-83
2022/03/14 05:33:56;;;;;;;60.65;31.38;;;;;;;1.27;46.79;100668.13;4969745;28;20067;-87
2022/03/14 05:36:21;;;;;;;48.45;26.38;;;;;;;1.38;46.66;100676.75;4947751;28;20155;-85
2022/03/14 05:38:47;;;;;;;51.25;26.17;;;;;;;1.49;46.48;100675.13;4963043;28;20045;-85
2022/03/14 05:41:34;;;;;;;45.65;24.70;;;;;;;1.64;46.00;100681.19;4945849;28;20028;-95
2022/03/14 05:43:59;;;;;;;54.15;28.15;;;;;;;1.77;45.96;100683.00;4939210;29;20579;-88
2022/03/14 05:46:25;;;;;;;44.40;24.67;;;;;;;1.86;45.33;100671.94;4929733;29;20032;-83
2022/03/14 05:48:50;;;;;;;44.53;26.08;;;;;;;1.90;45.06;100664.25;4943019;29;20126;-83
2022/03/14 05:51:17;;;;;;;45.70;25.48;;;;;;;2.17;44.51;100689.19;4945773;29;20079;-91
2022/03/14 05:53:43;;;;;;;49.83;26.77;;;;;;;2.28;44.23;100665.25;4927478;29;20035;-87
2022/03/14 05:56:08;;;;;;;45.63;24.40;;;;;;;2.64;43.48;100685.91;4942818;28;20043;-84
2022/03/14 05:58:33;;;;;;;44.53;25.35;;;;;;;2.83;42.62;100645.66;4926985;29;20024;-89
2022/03/14 06:00:59;;;;;;;39.33;24.17;;;;;;;3.40;41.50;100682.53;4931915;29;20031;-85
2022/03/14 06:03:24;;;;;;;43.13;24.35;;;;;;;3.85;40.42;100690.19;4937448;29;20369;-85
2022/03/14 06:05:50;;;;;;;40.65;23.90;;;;;;;4.14;40.07;100682.38;4937220;29;20031;-85
2022/03/14 06:08:18;;;;;;;90.90;43.90;;;;;;;4.55;39.57;100673.56;4937062;29;20045;-84
2022/03/14 06:10:46;;;;;;;75.57;37.95;;;;;;;4.68;38.58;100676.09;4953224;28;20039;-81
2022/03/14 06:13:15;;;;;;;64.43;28.27;;;;;;;5.04;37.93;100694.75;4936851;29;20058;-85
2022/03/14 06:15:41;;;;;;;42.60;24.38;;;;;;;5.28;36.86;100696.31;4937011;29;20031;-84
2022/03/14 06:18:07;;;;;;;43.85;23.95;;;;;;;5.30;36.99;100689.38;4936819;28;20226;-84
2022/03/14 06:20:32;;;;;;;47.78;23.52;;;;;;;5.48;36.80;100676.31;4934715;29;20047;-84
2022/03/14 06:22:58;;;;;;;38.70;22.65;;;;;;;5.71;36.20;100675.22;4936188;29;20507;-81
2022/03/14 06:25:23;;;;;;;38.97;22.85;;;;;;;6.02;35.78;100688.69;4936468;29;20040;-84
2022/03/14 06:27:49;;;;;;;47.15;26.15;;;;;;;6.12;34.86;100676.53;4935380;28;20028;-81
2022/03/14 06:30:14;;;;;;;34.75;21.63;;;;;;;6.53;34.54;100665.66;4936446;29;20025;-80
2022/03/14 06:32:41;;;;;;;35.40;21.13;;;;;;;7.00;33.65;100685.69;4935225;29;20502;-81
2022/03/14 06:35:14;;;;;;;38.47;22.38;;;;;;;7.42;33.35;100679.84;4935084;28;20570;-81
2022/03/14 06:37:40;;;;;;;37.22;23.17;;;;;;;7.37;32.77;100687.66;4935824;29;20046;-82
2022/03/14 06:40:07;;;;;;;42.70;23.20;;;;;;;7.47;32.61;100671.09;4936332;29;20027;-80
2022/03/14 06:42:32;;;;;;;37.28;21.80;;;;;;;8.10;32.19;100682.88;4935161;29;20436;-82
2022/03/14 06:45:01;;;;;;;40.47;24.10;;;;;;;8.49;30.91;100681.22;4934920;28;20035;-81
2022/03/14 06:47:26;;;;;;;36.63;22.48;;;;;;;8.58;31.34;100687.09;4936201;29;20028;-81
2022/03/14 06:49:51;;;;;;;37.92;23.63;;;;;;;8.55;30.49;100680.22;4935137;29;20027;-81
2022/03/14 06:52:17;;;;;;;37.17;22.88;;;;;;;9.48;29.79;100667.63;4936415;29;20024;-81
2022/03/14 06:54:42;;;;;;;33.65;21.58;;;;;;;10.11;28.58;100680.66;4936024;29;20088;-81
2022/03/14 06:57:09;;;;;;;41.38;22.58;;;;;;;10.07;28.20;100702.47;4936229;29;20039;-80
2022/03/14 06:59:35;;;;;;;34.42;20.73;;;;;;;9.81;27.93;100683.22;4936001;29;20492;-84
2022/03/14 07:02:02;;;;;;;33.00;19.92;;;;;;;10.62;26.83;100704.41;4934382;28;20066;-85
2022/03/14 07:04:27;;;;;;;32.17;19.42;;;;;;;10.57;26.79;100698.44;4934798;29;20031;-84
2022/03/14 07:06:53;;;;;;;34.70;21.42;;;;;;;10.61;26.70;100694.00;4935910;29;20027;-87
2022/03/14 07:09:18;;;;;;;33.45;20.17;;;;;;;10.62;26.56;100707.00;4934466;29;20241;-81
2022/03/14 07:11:44;;;;;;;33.47;21.45;;;;;;;10.66;26.20;100707.75;4934422;29;20035;-81
2022/03/14 07:14:09;;;;;;;32.95;20.52;;;;;;;10.84;26.99;100699.38;4934249;29;20020;-81
2022/03/14 07:16:35;;;;;;;29.00;19.77;;;;;;;10.90;26.16;100688.75;4935923;29;20036;-81
2022/03/14 07:19:01;;;;;;;31.73;20.83;;;;;;;10.96;25.83;100711.19;4934352;29;20034;-81
2022/03/14 07:21:29;;;;;;;30.00;19.55;;;;;;;10.87;25.86;100698.41;4934478;28;20043;-81
2022/03/14 07:23:55;;;;;;;35.78;22.73;;;;;;;11.31;25.64;100704.81;4935680;29;20031;-83
2022/03/14 07:26:21;;;;;;;32.58;21.48;;;;;;;13.50;24.25;100701.94;4934409;29;20066;-84
2022/03/14 07:28:48;;;;;;;39.78;24.83;;;;;;;13.97;22.38;100705.13;4935729;29;20106;-89
2022/03/14 07:31:14;;;;;;;34.70;22.02;;;;;;;13.14;23.55;100701.66;4934326;28;20035;-86
2022/03/14 07:33:39;;;;;;;37.13;21.58;;;;;;;12.06;24.39;100688.38;4935370;29;20028;-81
2022/03/14 07:36:04;;;;;;;30.55;20.77;;;;;;;13.04;24.72;100703.78;4934006;29;20395;-80
2022/03/14 07:38:30;;;;;;;36.85;22.75;;;;;;;13.66;22.93;100705.63;4934106;29;20024;-81
2022/03/14 07:40:55;;;;;;;38.88;22.80;;;;;;;13.87;23.00;100703.00;4933666;29;20030;-81
2022/03/14 07:43:21;;;;;;;37.25;22.90;;;;;;;14.40;22.81;100697.97;4935062;29;20092;-81
2022/03/14 07:45:46;;;;;;;35.55;22.92;;;;;;;15.40;21.61;100688.00;4934162;29;20563;-80
2022/03/14 07:48:13;;;;;;;40.03;25.48;;;;;;;14.27;21.87;100682.88;4933848;29;20488;-83
2022/03/14 07:50:39;;;;;;;40.42;24.17;;;;;;;13.27;23.11;100700.25;4933921;29;20031;-82
2022/03/14 07:53:06;;;;;;;38.25;22.35;;;;;;;12.54;24.18;100695.31;4933865;29;20030;-85
2022/03/14 07:55:32;;;;;;;34.10;21.83;;;;;;;12.00;24.54;100712.94;4934130;28;20035;-83
2022/03/14 07:57:58;;;;;;;37.47;23.17;;;;;;;11.39;24.73;100712.41;4933672;29;20588;-85
2022/03/14 08:00:23;;;;;;;35.55;22.55;;;;;;;11.20;25.32;100713.00;4934097;29;20032;-80
2022/03/14 08:02:49;;;;;;;38.83;22.33;;;;;;;11.03;26.13;100706.63;4934010;29;20027;-82
2022/03/14 08:05:16;;;;;;;36.38;22.65;;;;;;;11.03;26.23;100717.03;4933444;29;20031;-81
2022/03/14 08:07:46;;;;;;;35.30;23.50;;;;;;;10.92;26.20;100709.56;4933822;29;20039;-82
2022/03/14 08:10:16;;;;;;;38.08;23.58;;;;;;;10.71;26.23;100705.88;4933819;29;20404;-81
2022/03/14 08:12:49;;;;;;;35.22;21.98;;;;;;;10.67;26.49;100719.88;4933192;28;20055;-81
2022/03/14 08:15:28;;;;;;;34.13;21.38;;;;;;;10.46;26.20;100698.78;4934610;29;20523;-81
2022/03/14 08:17:56;;;;;;;30.92;21.23;;;;;;;10.62;26.17;100724.34;4933675;28;20023;-81
2022/03/14 08:20:23;;;;;;;32.85;19.58;;;;;;;10.56;26.44;100714.13;4934591;29;20032;-81
2022/03/14 08:22:52;;;;;;;30.02;19.73;;;;;;;10.41;26.26;100708.50;4934839;29;20107;-84
2022/03/14 08:25:18;;;;;;;31.70;19.38;;;;;;;10.30;25.88;100701.88;4933162;29;20119;-84
2022/03/14 08:27:44;;;;;;;31.63;19.52;;;;;;;10.26;25.74;100682.88;4933573;28;20027;-84
2022/03/14 08:30:10;;;;;;;24.17;17.65;;;;;;;10.21;25.41;100700.34;4933270;29;20043;-83
2022/03/14 08:32:39;;;;;;;23.65;16.27;;;;;;;10.09;25.23;100724.13;4934681;29;20038;-82
2022/03/14 08:35:08;;;;;;;27.52;17.08;;;;;;;10.09;25.59;100716.31;4933132;29;20036;-82
2022/03/14 08:37:36;;;;;;;25.40;16.80;;;;;;;10.06;25.08;100708.56;4933350;28;20492;-82
2022/03/14 08:40:02;;;;;;;27.27;18.10;;;;;;;10.01;25.67;100711.31;4934434;29;20455;-81
2022/03/14 08:42:28;;;;;;;35.53;20.52;;;;;;;9.89;26.07;100719.44;4933509;29;20027;-80
2022/03/14 08:44:53;;;;;;;42.47;24.35;;;;;;;9.65;26.51;100684.50;4933398;29;20032;-80
2022/03/14 08:47:18;;;;;;;28.73;17.70;;;;;;;9.79;26.35;100699.78;4933189;29;20036;-80
2022/03/14 08:49:44;;;;;;;30.63;17.38;;;;;;;9.86;26.28;100715.19;4934576;29;20432;-81
2022/03/14 08:52:09;;;;;;;27.13;16.10;;;;;;;9.95;26.17;100714.94;4934117;29;20082;-80
2022/03/14 08:54:35;;;;;;;26.13;17.05;;;;;;;9.86;25.31;100693.50;4932876;29;20032;-81
2022/03/14 08:57:00;;;;;;;30.67;18.27;;;;;;;9.70;25.66;100711.28;4933271;28;20020;-81
2022/03/14 08:59:26;;;;;;;28.67;16.40;;;;;;;9.61;26.15;100716.72;4934233;29;20032;-80
2022/03/14 09:01:51;;;;;;;28.13;16.52;;;;;;;9.52;25.81;100693.53;4935664;28;20059;-82
2022/03/14 09:04:17;;;;;;;25.20;17.00;;;;;;;9.47;25.78;100704.06;4938022;29;20035;-81
2022/03/14 09:06:43;;;;;;;28.67;17.45;;;;;;;9.38;25.99;100688.69;4936865;29;20444;-80
2022/03/14 09:09:08;;;;;;;20.25;14.82;;;;;;;9.32;26.40;100679.31;4936439;29;20394;-80
2022/03/14 09:11:33;;;;;;;28.23;16.88;;;;;;;9.41;26.60;100689.47;4936713;28;20472;-80
2022/03/14 09:13:59;;;;;;;20.50;14.60;;;;;;;9.49;26.05;100694.47;4937983;29;20028;-83
2022/03/14 09:16:25;;;;;;;20.98;13.05;;;;;;;9.49;24.60;100712.69;4936468;29;20039;-82
2022/03/14 09:18:52;;;;;;;22.25;13.85;;;;;;;9.42;24.35;100719.78;4937843;29;20472;-83
2022/03/14 09:21:18;;;;;;;19.75;14.38;;;;;;;9.28;25.01;100698.47;4937590;29;20027;-82
2022/03/14 09:23:44;;;;;;;24.10;15.38;;;;;;;9.23;25.05;100696.00;4936450;29;20525;-81
2022/03/14 09:26:10;;;;;;;22.00;14.77;;;;;;;9.28;25.25;100693.28;4937671;29;20126;-83
2022/03/14 09:28:36;;;;;;;21.20;13.77;;;;;;;9.34;25.35;100693.09;4936535;29;20035;-83
2022/03/14 09:31:02;;;;;;;21.33;14.15;;;;;;;9.40;24.75;100703.38;4936479;29;20027;-83
2022/03/14 09:33:28;;;;;;;20.73;14.13;;;;;;;9.35;24.56;100689.59;4936119;29;20046;-83
2022/03/14 09:35:54;;;;;;;19.63;12.85;;;;;;;9.34;24.69;100692.25;4936202;29;20040;-85
2022/03/14 09:38:19;;;;;;;19.08;12.57;;;;;;;9.39;24.65;100680.84;4935932;28;20028;-84
2022/03/14 09:40:46;;;;;;;17.23;11.70;;;;;;;9.39;24.32;100672.19;4936378;28;20043;-80
2022/03/14 09:43:16;;;;;;;21.80;13.73;;;;;;;9.41;24.06;100676.47;4936146;29;20031;-79
2022/03/14 09:45:46;;;;;;;25.20;13.77;;;;;;;9.54;23.99;100678.75;4936036;29;20039;-80
2022/03/14 09:48:14;;;;;;;20.13;12.00;;;;;;;9.62;24.49;100695.88;4935861;29;20361;-80
2022/03/14 09:50:41;;;;;;;19.65;12.68;;;;;;;9.68;24.47;100671.44;4937137;29;20042;-80
2022/03/14 09:53:09;;;;;;;22.42;12.07;;;;;;;9.80;24.19;100678.91;4937302;29;20035;-80
2022/03/14 09:55:44;;;;;;;16.58;12.85;;;;;;;9.77;24.21;100675.53;4935993;29;20032;-79
2022/03/14 09:58:19;;;;;;;20.50;12.90;;;;;;;9.74;24.82;100664.34;4935852;28;20039;-80
2022/03/14 10:00:46;;;;;;;20.85;12.45;;;;;;;9.84;24.51;100669.28;4935736;29;20061;-83
2022/03/14 10:03:13;;;;;;;18.52;13.35;;;;;;;9.85;23.81;100666.63;4935578;29;20035;-79
2022/03/14 10:05:39;;;;;;;18.95;12.25;;;;;;;9.85;23.37;100666.63;4935962;29;20095;-79
2022/03/14 10:08:05;;;;;;;32.63;13.48;;;;;;;9.95;23.82;100668.09;4937416;29;20035;-79
2022/03/14 10:10:30;;;;;;;28.70;13.93;;;;;;;9.92;23.43;100664.72;4937151;29;20039;-79
2022/03/14 10:12:57;;;;;;;20.52;12.77;;;;;;;10.02;23.99;100673.97;4936427;29;20492;-79
2022/03/14 10:15:27;;;;;;;22.65;12.57;;;;;;;10.08;23.60;100659.94;4935473;29;20380;-81
2022/03/14 10:17:54;;;;;;;19.67;13.03;;;;;;;10.17;23.96;100668.34;4935738;28;20031;-81
2022/03/14 10:20:21;;;;;;;20.05;12.98;;;;;;;10.18;23.77;100656.16;4936579;29;20294;-81
2022/03/14 10:22:47;;;;;;;14.98;11.25;;;;;;;10.32;23.56;100677.47;4936822;29;20028;-86
2022/03/14 10:25:15;;;;;;;19.17;12.75;;;;;;;10.37;23.41;100667.81;4936579;29;20024;-86
2022/03/14 10:27:56;;;;;;;19.67;11.77;;;;;;;10.44;23.53;100677.13;4935399;29;20095;-84
2022/03/14 10:30:33;;;;;;;17.40;11.45;;;;;;;10.51;23.01;100674.34;4935000;28;20040;-84
2022/03/14 10:33:05;;;;;;;20.77;11.43;;;;;;;10.53;22.57;100672.53;4935617;28;20026;-86
2022/03/14 10:35:38;;;;;;;18.27;10.73;;;;;;;10.45;23.00;100670.19;4934997;29;20036;-86
2022/03/14 10:38:06;;;;;;;19.58;10.95;;;;;;;10.55;22.67;100676.81;4935231;28;20433;-85
2022/03/14 10:40:36;;;;;;;14.82;11.30;;;;;;;10.53;22.19;100672.53;4936142;29;20540;-85
2022/03/14 10:43:06;;;;;;;19.67;11.18;;;;;;;10.42;22.52;100670.28;4936603;29;20551;-84
2022/03/14 10:45:32;;;;;;;16.73;10.85;;;;;;;10.47;22.77;100673.59;4934877;29;20115;-80
2022/03/14 10:47:58;;;;;;;15.23;11.43;;;;;;;10.53;22.86;100670.78;4935138;29;20123;-79
2022/03/14 10:50:29;;;;;;;16.00;11.15;;;;;;;10.64;23.42;100683.50;4936121;29;20110;-79
2022/03/14 10:53:12;;;;;;;20.13;13.38;;;;;;;10.76;22.63;100682.28;4936347;29;20031;-79
2022/03/14 10:55:47;;;;;;;16.52;11.18;;;;;;;10.68;22.72;100657.28;4934991;29;20040;-78
2022/03/14 10:58:12;;;;;;;15.95;11.05;;;;;;;10.83;22.85;100683.78;4935990;29;20031;-79
2022/03/14 11:01:05;;;;;;;14.27;11.13;;;;;;;10.87;22.78;100678.44;4936474;29;20045;-81
2022/03/14 11:03:31;;;;;;;14.68;11.82;;;;;;;10.87;23.12;100673.22;4876824;29;20052;-76
2022/03/14 11:06:00;;;;;;;16.63;12.45;;;;;;;10.77;23.16;100660.53;4877201;29;20076;-77
2022/03/14 11:08:33;;;;;;;18.45;13.15;;;;;;;10.79;23.51;100669.13;4876864;29;20072;-78
2022/03/14 11:11:02;;;;;;;18.98;13.80;;;;;;;10.81;23.77;100664.75;4876972;29;20471;-77
2022/03/14 11:13:28;;;;;;;18.48;12.55;;;;;;;10.82;23.60;100649.03;4876373;29;20059;-76